sensor_id;sensor_type;location;lat;lon;timestamp;P1;durP1;ratioP1;P2;durP2;ratioP2
16705;SDS011;8469;60.136;15.180;2023-04-01T00:01:03;2.12;;;1.40;;
16705;SDS011;8469;60.136;15.180;2023-04-01T00:03:31;2.22;;;1.20;;
16705;SDS011;8469;60.136;15.180;2023-04-01T00:05:59;2.17;;;1.20;;
16705;SDS011;8469;60.136;15.180;2023-04-01T00:08:27;8.85;;;1.40;;
16705;SDS011;8469;60.136;15.180;2023-04-01T00:10:54;4.97;;;1.50;;
16705;SDS011;8469;60.136;15.180;2023-04-01T00:13:23;1.25;;;1.15;;
16705;SDS011;8469;60.136;15.180;2023-04-01T00:15:53;3.25;;;1.30;;
16705;SDS011;8469;60.136;15.180;2023-04-01T00:18:20;2.45;;;1.00;;
16705;SDS011;8469;60.136;15.180;2023-04-01T00:20:49;2.00;;;1.20;;
16705;SDS011;8469;60.136;15.180;2023-04-01T00:23:17;4.80;;;1.30;;
16705;SDS011;8469;60.136;15.180;2023-04-01T00:25:45;1.27;;;1.17;;
16705;SDS011;8469;60.136;15.180;2023-04-01T00:28:14;1.12;;;1.02;;
16705;SDS011;8469;60.136;15.180;2023-04-01T00:30:42;1.30;;;1.00;;
16705;SDS011;8469;60.136;15.180;2023-04-01T00:33:09;3.12;;;1.40;;
16705;SDS011;8469;60.136;15.180;2023-04-01T00:35:37;2.20;;;1.10;;
16705;SDS011;8469;60.136;15.180;2023-04-01T00:38:04;4.25;;;1.20;;
16705;SDS011;8469;60.136;15.180;2023-04-01T00:40:35;2.37;;;1.05;;
16705;SDS011;8469;60.136;15.180;2023-04-01T00:43:01;1.65;;;1.30;;
16705;SDS011;8469;60.136;15.180;2023-04-01T00:45:31;3.95;;;1.30;;
16705;SDS011;8469;60.136;15.180;2023-04-01T00:47:59;1.07;;;1.00;;
16705;SDS011;8469;60.136;15.180;2023-04-01T00:50:27;2.40;;;1.20;;
16705;SDS011;8469;60.136;15.180;2023-04-01T00:52:56;2.67;;;1.67;;
16705;SDS011;8469;60.136;15.180;2023-04-01T00:55:24;2.20;;;1.00;;
16705;SDS011;8469;60.136;15.180;2023-04-01T00:57:53;3.00;;;1.17;;
16705;SDS011;8469;60.136;15.180;2023-04-01T01:00:23;2.10;;;1.00;;
16705;SDS011;8469;60.136;15.180;2023-04-01T01:02:52;2.15;;;1.35;;
16705;SDS011;8469;60.136;15.180;2023-04-01T01:05:21;7.87;;;1.20;;
16705;SDS011;8469;60.136;15.180;2023-04-01T01:07:55;1.82;;;1.30;;
16705;SDS011;8469;60.136;15.180;2023-04-01T01:10:26;2.65;;;1.47;;
16705;SDS011;8469;60.136;15.180;2023-04-01T01:15:39;1.22;;;1.00;;
16705;SDS011;8469;60.136;15.180;2023-04-01T01:20:44;5.58;;;1.10;;
16705;SDS011;8469;60.136;15.180;2023-04-01T01:31:07;1.67;;;1.20;;
16705;SDS011;8469;60.136;15.180;2023-04-01T01:33:34;1.37;;;1.00;;
16705;SDS011;8469;60.136;15.180;2023-04-01T01:36:02;1.32;;;1.07;;
16705;SDS011;8469;60.136;15.180;2023-04-01T01:38:31;1.52;;;0.90;;
16705;SDS011;8469;60.136;15.180;2023-04-01T01:40:59;1.20;;;1.00;;
16705;SDS011;8469;60.136;15.180;2023-04-01T01:43:29;3.37;;;1.10;;
16705;SDS011;8469;60.136;15.180;2023-04-01T01:45:57;0.97;;;0.97;;
16705;SDS011;8469;60.136;15.180;2023-04-01T01:48:24;1.20;;;1.10;;
16705;SDS011;8469;60.136;15.180;2023-04-01T01:50:52;1.35;;;1.00;;
16705;SDS011;8469;60.136;15.180;2023-04-01T01:53:20;1.02;;;1.02;;
16705;SDS011;8469;60.136;15.180;2023-04-01T01:55:47;0.90;;;0.90;;
16705;SDS011;8469;60.136;15.180;2023-04-01T01:58:21;1.20;;;1.10;;
16705;SDS011;8469;60.136;15.180;2023-04-01T02:00:44;1.20;;;0.98;;
16705;SDS011;8469;60.136;15.180;2023-04-01T02:03:13;3.70;;;0.98;;
16705;SDS011;8469;60.136;15.180;2023-04-01T02:05:41;1.50;;;1.10;;
16705;SDS011;8469;60.136;15.180;2023-04-01T02:10:39;0.90;;;0.90;;
16705;SDS011;8469;60.136;15.180;2023-04-01T02:13:09;5.00;;;1.30;;
16705;SDS011;8469;60.136;15.180;2023-04-01T02:15:37;2.00;;;1.00;;
16705;SDS011;8469;60.136;15.180;2023-04-01T02:18:04;3.10;;;1.10;;
16705;SDS011;8469;60.136;15.180;2023-04-01T02:20:33;0.98;;;0.90;;
16705;SDS011;8469;60.136;15.180;2023-04-01T02:23:00;1.07;;;0.90;;
16705;SDS011;8469;60.136;15.180;2023-04-01T02:25:30;1.12;;;1.02;;
16705;SDS011;8469;60.136;15.180;2023-04-01T02:27:58;0.95;;;0.90;;
16705;SDS011;8469;60.136;15.180;2023-04-01T02:30:27;0.90;;;0.90;;
16705;SDS011;8469;60.136;15.180;2023-04-01T02:32:55;1.05;;;0.80;;
16705;SDS011;8469;60.136;15.180;2023-04-01T02:35:23;0.90;;;0.90;;
16705;SDS011;8469;60.136;15.180;2023-04-01T02:37:50;0.80;;;0.80;;
16705;SDS011;8469;60.136;15.180;2023-04-01T02:40:19;1.05;;;0.93;;
16705;SDS011;8469;60.136;15.180;2023-04-01T02:42:46;0.90;;;0.80;;
16705;SDS011;8469;60.136;15.180;2023-04-01T02:45:14;1.17;;;0.93;;
16705;SDS011;8469;60.136;15.180;2023-04-01T02:47:41;1.17;;;0.82;;
16705;SDS011;8469;60.136;15.180;2023-04-01T02:50:09;1.27;;;1.03;;
16705;SDS011;8469;60.136;15.180;2023-04-01T02:52:36;0.80;;;0.80;;
16705;SDS011;8469;60.136;15.180;2023-04-01T02:55:04;1.40;;;0.87;;
16705;SDS011;8469;60.136;15.180;2023-04-01T02:57:32;1.40;;;0.80;;
16705;SDS011;8469;60.136;15.180;2023-04-01T02:59:59;0.80;;;0.80;;
16705;SDS011;8469;60.136;15.180;2023-04-01T03:02:26;1.30;;;1.20;;
16705;SDS011;8469;60.136;15.180;2023-04-01T03:04:54;1.20;;;0.90;;
16705;SDS011;8469;60.136;15.180;2023-04-01T03:07:21;1.00;;;0.70;;
16705;SDS011;8469;60.136;15.180;2023-04-01T03:09:49;2.12;;;0.82;;
16705;SDS011;8469;60.136;15.180;2023-04-01T03:12:16;1.75;;;0.85;;
16705;SDS011;8469;60.136;15.180;2023-04-01T03:14:44;1.07;;;0.90;;
16705;SDS011;8469;60.136;15.180;2023-04-01T03:17:11;0.82;;;0.82;;
16705;SDS011;8469;60.136;15.180;2023-04-01T03:19:39;1.07;;;0.97;;
16705;SDS011;8469;60.136;15.180;2023-04-01T03:22:06;1.80;;;0.82;;
16705;SDS011;8469;60.136;15.180;2023-04-01T03:24:33;1.85;;;0.85;;
16705;SDS011;8469;60.136;15.180;2023-04-01T03:27:01;1.42;;;0.98;;
16705;SDS011;8469;60.136;15.180;2023-04-01T03:29:28;1.60;;;0.80;;
16705;SDS011;8469;60.136;15.180;2023-04-01T03:31:56;0.80;;;0.80;;
16705;SDS011;8469;60.136;15.180;2023-04-01T03:34:25;1.10;;;0.80;;
16705;SDS011;8469;60.136;15.180;2023-04-01T03:36:53;0.88;;;0.88;;
16705;SDS011;8469;60.136;15.180;2023-04-01T03:39:20;1.20;;;0.80;;
16705;SDS011;8469;60.136;15.180;2023-04-01T03:41:48;0.72;;;0.72;;
16705;SDS011;8469;60.136;15.180;2023-04-01T03:44:15;0.70;;;0.70;;
16705;SDS011;8469;60.136;15.180;2023-04-01T03:46:43;1.20;;;0.90;;
16705;SDS011;8469;60.136;15.180;2023-04-01T03:49:10;1.20;;;1.07;;
16705;SDS011;8469;60.136;15.180;2023-04-01T03:51:38;1.60;;;0.60;;
16705;SDS011;8469;60.136;15.180;2023-04-01T03:54:06;1.70;;;0.90;;
16705;SDS011;8469;60.136;15.180;2023-04-01T03:56:33;1.35;;;0.82;;
16705;SDS011;8469;60.136;15.180;2023-04-01T03:59:01;1.22;;;0.72;;
16705;SDS011;8469;60.136;15.180;2023-04-01T04:01:30;0.60;;;0.60;;
16705;SDS011;8469;60.136;15.180;2023-04-01T04:03:57;1.10;;;0.80;;
16705;SDS011;8469;60.136;15.180;2023-04-01T04:06:25;0.75;;;0.75;;
16705;SDS011;8469;60.136;15.180;2023-04-01T04:08:53;0.70;;;0.70;;
16705;SDS011;8469;60.136;15.180;2023-04-01T04:11:21;1.10;;;0.82;;
16705;SDS011;8469;60.136;15.180;2023-04-01T04:13:48;2.20;;;0.72;;
16705;SDS011;8469;60.136;15.180;2023-04-01T04:16:16;2.72;;;0.80;;
16705;SDS011;8469;60.136;15.180;2023-04-01T04:18:44;0.80;;;0.80;;
16705;SDS011;8469;60.136;15.180;2023-04-01T04:21:14;1.57;;;0.80;;
16705;SDS011;8469;60.136;15.180;2023-04-01T04:23:42;0.80;;;0.80;;
16705;SDS011;8469;60.136;15.180;2023-04-01T04:26:11;1.10;;;0.85;;
16705;SDS011;8469;60.136;15.180;2023-04-01T04:28:39;15.48;;;1.37;;
16705;SDS011;8469;60.136;15.180;2023-04-01T04:31:06;3.58;;;1.02;;
16705;SDS011;8469;60.136;15.180;2023-04-01T04:33:34;0.90;;;0.55;;
16705;SDS011;8469;60.136;15.180;2023-04-01T04:36:02;1.50;;;0.72;;
16705;SDS011;8469;60.136;15.180;2023-04-01T04:38:30;1.15;;;0.70;;
16705;SDS011;8469;60.136;15.180;2023-04-01T04:40:57;0.88;;;0.80;;
16705;SDS011;8469;60.136;15.180;2023-04-01T04:43:24;2.05;;;0.80;;
16705;SDS011;8469;60.136;15.180;2023-04-01T04:45:52;2.43;;;0.70;;
16705;SDS011;8469;60.136;15.180;2023-04-01T04:48:19;1.52;;;1.30;;
16705;SDS011;8469;60.136;15.180;2023-04-01T04:50:47;1.30;;;0.82;;
16705;SDS011;8469;60.136;15.180;2023-04-01T04:53:16;0.72;;;0.72;;
16705;SDS011;8469;60.136;15.180;2023-04-01T04:55:47;0.95;;;0.70;;
16705;SDS011;8469;60.136;15.180;2023-04-01T04:58:15;1.55;;;0.90;;
16705;SDS011;8469;60.136;15.180;2023-04-01T05:00:43;4.42;;;0.80;;
16705;SDS011;8469;60.136;15.180;2023-04-01T05:03:10;3.65;;;0.98;;
16705;SDS011;8469;60.136;15.180;2023-04-01T05:05:38;2.10;;;0.90;;
16705;SDS011;8469;60.136;15.180;2023-04-01T05:08:06;2.02;;;1.27;;
16705;SDS011;8469;60.136;15.180;2023-04-01T05:10:33;1.10;;;0.90;;
16705;SDS011;8469;60.136;15.180;2023-04-01T05:13:00;0.98;;;0.80;;
16705;SDS011;8469;60.136;15.180;2023-04-01T05:15:28;0.78;;;0.78;;
16705;SDS011;8469;60.136;15.180;2023-04-01T05:17:55;1.62;;;0.80;;
16705;SDS011;8469;60.136;15.180;2023-04-01T05:20:23;1.30;;;0.70;;
16705;SDS011;8469;60.136;15.180;2023-04-01T05:22:55;6.90;;;0.85;;
16705;SDS011;8469;60.136;15.180;2023-04-01T05:25:20;0.82;;;0.80;;
16705;SDS011;8469;60.136;15.180;2023-04-01T05:27:47;1.30;;;0.72;;
16705;SDS011;8469;60.136;15.180;2023-04-01T05:30:15;0.90;;;0.60;;
16705;SDS011;8469;60.136;15.180;2023-04-01T05:32:42;0.82;;;0.80;;
16705;SDS011;8469;60.136;15.180;2023-04-01T05:35:10;1.20;;;1.10;;
16705;SDS011;8469;60.136;15.180;2023-04-01T05:37:37;0.75;;;0.75;;
16705;SDS011;8469;60.136;15.180;2023-04-01T05:40:05;2.67;;;0.82;;
16705;SDS011;8469;60.136;15.180;2023-04-01T05:42:33;2.15;;;1.00;;
16705;SDS011;8469;60.136;15.180;2023-04-01T05:45:00;4.20;;;0.80;;
16705;SDS011;8469;60.136;15.180;2023-04-01T05:47:28;0.80;;;0.70;;
16705;SDS011;8469;60.136;15.180;2023-04-01T05:49:55;1.23;;;1.13;;
16705;SDS011;8469;60.136;15.180;2023-04-01T05:52:23;0.80;;;0.70;;
16705;SDS011;8469;60.136;15.180;2023-04-01T05:54:51;0.70;;;0.70;;
16705;SDS011;8469;60.136;15.180;2023-04-01T05:57:18;0.80;;;0.80;;
16705;SDS011;8469;60.136;15.180;2023-04-01T05:59:45;0.68;;;0.68;;
16705;SDS011;8469;60.136;15.180;2023-04-01T06:02:13;4.20;;;0.80;;
16705;SDS011;8469;60.136;15.180;2023-04-01T06:04:42;0.85;;;0.60;;
16705;SDS011;8469;60.136;15.180;2023-04-01T06:07:12;3.87;;;0.80;;
16705;SDS011;8469;60.136;15.180;2023-04-01T06:09:41;0.90;;;0.70;;
16705;SDS011;8469;60.136;15.180;2023-04-01T06:12:14;1.00;;;0.88;;
16705;SDS011;8469;60.136;15.180;2023-04-01T06:17:32;1.25;;;0.70;;
16705;SDS011;8469;60.136;15.180;2023-04-01T06:22:38;3.55;;;2.25;;
16705;SDS011;8469;60.136;15.180;2023-04-01T06:28:07;2.40;;;0.80;;
16705;SDS011;8469;60.136;15.180;2023-04-01T06:41:32;2.73;;;1.80;;
16705;SDS011;8469;60.136;15.180;2023-04-01T06:46:30;4.50;;;2.00;;
16705;SDS011;8469;60.136;15.180;2023-04-01T06:51:46;4.63;;;0.90;;
16705;SDS011;8469;60.136;15.180;2023-04-01T06:54:13;2.05;;;0.90;;
16705;SDS011;8469;60.136;15.180;2023-04-01T06:56:41;1.10;;;0.80;;
16705;SDS011;8469;60.136;15.180;2023-04-01T06:59:10;3.10;;;0.70;;
16705;SDS011;8469;60.136;15.180;2023-04-01T07:04:25;17.00;;;1.70;;
16705;SDS011;8469;60.136;15.180;2023-04-01T07:06:53;4.75;;;0.95;;
16705;SDS011;8469;60.136;15.180;2023-04-01T07:09:31;8.18;;;1.10;;
16705;SDS011;8469;60.136;15.180;2023-04-01T07:11:56;3.12;;;1.10;;
16705;SDS011;8469;60.136;15.180;2023-04-01T07:14:29;2.92;;;1.00;;
16705;SDS011;8469;60.136;15.180;2023-04-01T07:17:08;4.53;;;0.70;;
16705;SDS011;8469;60.136;15.180;2023-04-01T07:24:44;6.17;;;1.20;;
16705;SDS011;8469;60.136;15.180;2023-04-01T07:27:13;3.52;;;1.00;;
16705;SDS011;8469;60.136;15.180;2023-04-01T07:29:41;7.08;;;2.17;;
16705;SDS011;8469;60.136;15.180;2023-04-01T07:50:11;1.40;;;0.90;;
16705;SDS011;8469;60.136;15.180;2023-04-01T07:52:49;3.22;;;1.27;;
16705;SDS011;8469;60.136;15.180;2023-04-01T07:55:10;0.73;;;0.73;;
16705;SDS011;8469;60.136;15.180;2023-04-01T08:00:21;1.30;;;0.90;;
16705;SDS011;8469;60.136;15.180;2023-04-01T08:02:58;0.85;;;0.80;;
16705;SDS011;8469;60.136;15.180;2023-04-01T08:05:29;1.22;;;0.93;;
16705;SDS011;8469;60.136;15.180;2023-04-01T08:08:01;3.92;;;1.00;;
16705;SDS011;8469;60.136;15.180;2023-04-01T08:18:23;1.50;;;0.80;;
16705;SDS011;8469;60.136;15.180;2023-04-01T08:20:59;3.50;;;1.12;;
16705;SDS011;8469;60.136;15.180;2023-04-01T08:23:27;8.65;;;1.40;;
16705;SDS011;8469;60.136;15.180;2023-04-01T08:26:01;3.80;;;1.10;;
16705;SDS011;8469;60.136;15.180;2023-04-01T08:28:32;8.00;;;1.37;;
16705;SDS011;8469;60.136;15.180;2023-04-01T08:31:00;4.15;;;0.90;;
16705;SDS011;8469;60.136;15.180;2023-04-01T08:33:28;3.20;;;0.93;;
16705;SDS011;8469;60.136;15.180;2023-04-01T08:35:58;5.97;;;0.70;;
16705;SDS011;8469;60.136;15.180;2023-04-01T08:38:32;5.40;;;0.80;;
16705;SDS011;8469;60.136;15.180;2023-04-01T08:48:48;8.53;;;0.73;;
16705;SDS011;8469;60.136;15.180;2023-04-01T08:56:31;2.85;;;0.72;;
16705;SDS011;8469;60.136;15.180;2023-04-01T08:58:58;3.55;;;0.85;;
16705;SDS011;8469;60.136;15.180;2023-04-01T09:04:33;1.60;;;0.45;;
16705;SDS011;8469;60.136;15.180;2023-04-01T09:12:25;3.05;;;0.70;;
16705;SDS011;8469;60.136;15.180;2023-04-01T09:15:01;0.55;;;0.55;;
16705;SDS011;8469;60.136;15.180;2023-04-01T09:35:38;0.80;;;0.78;;
16705;SDS011;8469;60.136;15.180;2023-04-01T09:46:14;2.50;;;0.80;;
16705;SDS011;8469;60.136;15.180;2023-04-01T09:48:55;2.20;;;0.62;;
16705;SDS011;8469;60.136;15.180;2023-04-01T09:54:02;6.90;;;0.90;;
16705;SDS011;8469;60.136;15.180;2023-04-01T09:59:15;0.90;;;0.70;;
16705;SDS011;8469;60.136;15.180;2023-04-01T10:01:45;2.80;;;0.50;;
16705;SDS011;8469;60.136;15.180;2023-04-01T10:07:22;1.43;;;0.70;;
16705;SDS011;8469;60.136;15.180;2023-04-01T10:12:49;2.77;;;0.80;;
16705;SDS011;8469;60.136;15.180;2023-04-01T10:18:29;1.27;;;0.60;;
16705;SDS011;8469;60.136;15.180;2023-04-01T10:23:43;4.53;;;0.95;;
16705;SDS011;8469;60.136;15.180;2023-04-01T10:29:02;2.45;;;0.50;;
16705;SDS011;8469;60.136;15.180;2023-04-01T10:37:09;4.85;;;0.62;;
16705;SDS011;8469;60.136;15.180;2023-04-01T10:39:34;5.97;;;0.80;;
16705;SDS011;8469;60.136;15.180;2023-04-01T10:47:26;2.40;;;0.90;;
16705;SDS011;8469;60.136;15.180;2023-04-01T10:55:25;0.72;;;0.68;;
16705;SDS011;8469;60.136;15.180;2023-04-01T10:57:54;1.43;;;0.80;;
16705;SDS011;8469;60.136;15.180;2023-04-01T11:13:23;0.60;;;0.60;;
16705;SDS011;8469;60.136;15.180;2023-04-01T11:16:00;0.45;;;0.45;;
16705;SDS011;8469;60.136;15.180;2023-04-01T11:18:33;0.90;;;0.53;;
16705;SDS011;8469;60.136;15.180;2023-04-01T11:39:44;0.37;;;0.37;;
16705;SDS011;8469;60.136;15.180;2023-04-01T11:42:11;1.50;;;0.60;;
16705;SDS011;8469;60.136;15.180;2023-04-01T11:44:39;4.05;;;0.68;;
16705;SDS011;8469;60.136;15.180;2023-04-01T11:47:20;1.27;;;0.40;;
16705;SDS011;8469;60.136;15.180;2023-04-01T11:57:51;0.47;;;0.40;;
16705;SDS011;8469;60.136;15.180;2023-04-01T12:14:36;7.20;;;1.07;;
16705;SDS011;8469;60.136;15.180;2023-04-01T12:16:35;2.25;;;0.80;;
16705;SDS011;8469;60.136;15.180;2023-04-01T12:19:37;1.50;;;0.60;;
16705;SDS011;8469;60.136;15.180;2023-04-01T12:27:26;0.57;;;0.45;;
16705;SDS011;8469;60.136;15.180;2023-04-01T12:30:00;2.75;;;0.68;;
16705;SDS011;8469;60.136;15.180;2023-04-01T12:35:13;1.60;;;0.50;;
16705;SDS011;8469;60.136;15.180;2023-04-01T12:37:50;1.95;;;0.68;;
16705;SDS011;8469;60.136;15.180;2023-04-01T12:43:06;0.78;;;0.50;;
16705;SDS011;8469;60.136;15.180;2023-04-01T12:48:04;1.92;;;0.60;;
16705;SDS011;8469;60.136;15.180;2023-04-01T12:55:45;2.30;;;0.80;;
16705;SDS011;8469;60.136;15.180;2023-04-01T12:59:06;3.30;;;0.80;;
16705;SDS011;8469;60.136;15.180;2023-04-01T13:06:01;1.20;;;0.40;;
16705;SDS011;8469;60.136;15.180;2023-04-01T13:16:57;2.02;;;0.62;;
16705;SDS011;8469;60.136;15.180;2023-04-01T13:19:47;0.93;;;0.68;;
16705;SDS011;8469;60.136;15.180;2023-04-01T13:22:25;1.40;;;0.70;;
16705;SDS011;8469;60.136;15.180;2023-04-01T13:24:55;1.20;;;0.60;;
16705;SDS011;8469;60.136;15.180;2023-04-01T13:35:02;1.00;;;1.00;;
16705;SDS011;8469;60.136;15.180;2023-04-01T13:37:32;1.07;;;1.05;;
16705;SDS011;8469;60.136;15.180;2023-04-01T13:42:34;0.47;;;0.45;;
16705;SDS011;8469;60.136;15.180;2023-04-01T13:52:42;1.10;;;0.50;;
16705;SDS011;8469;60.136;15.180;2023-04-01T13:55:21;1.30;;;0.60;;
16705;SDS011;8469;60.136;15.180;2023-04-01T13:58:31;3.83;;;0.80;;
16705;SDS011;8469;60.136;15.180;2023-04-01T14:00:30;1.47;;;0.40;;
16705;SDS011;8469;60.136;15.180;2023-04-01T14:13:52;2.62;;;0.85;;
16705;SDS011;8469;60.136;15.180;2023-04-01T14:19:11;2.50;;;0.60;;
16705;SDS011;8469;60.136;15.180;2023-04-01T14:21:52;0.75;;;0.45;;
16705;SDS011;8469;60.136;15.180;2023-04-01T14:24:31;3.20;;;0.50;;
16705;SDS011;8469;60.136;15.180;2023-04-01T14:35:28;2.30;;;0.50;;
16705;SDS011;8469;60.136;15.180;2023-04-01T14:43:38;4.40;;;0.70;;
16705;SDS011;8469;60.136;15.180;2023-04-01T14:48:52;2.55;;;0.47;;
16705;SDS011;8469;60.136;15.180;2023-04-01T14:51:33;0.70;;;0.70;;
16705;SDS011;8469;60.136;15.180;2023-04-01T14:54:17;1.50;;;0.90;;
16705;SDS011;8469;60.136;15.180;2023-04-01T14:56:49;2.70;;;0.80;;
16705;SDS011;8469;60.136;15.180;2023-04-01T15:01:57;3.05;;;0.60;;
16705;SDS011;8469;60.136;15.180;2023-04-01T15:12:29;2.27;;;0.70;;
16705;SDS011;8469;60.136;15.180;2023-04-01T15:17:43;0.85;;;0.50;;
16705;SDS011;8469;60.136;15.180;2023-04-01T15:20:29;1.05;;;0.50;;
16705;SDS011;8469;60.136;15.180;2023-04-01T15:31:14;1.12;;;0.50;;
16705;SDS011;8469;60.136;15.180;2023-04-01T15:33:43;0.70;;;0.50;;
16705;SDS011;8469;60.136;15.180;2023-04-01T15:38:58;2.00;;;0.70;;
16705;SDS011;8469;60.136;15.180;2023-04-01T15:41:27;1.07;;;0.40;;
16705;SDS011;8469;60.136;15.180;2023-04-01T15:43:51;0.98;;;0.47;;
16705;SDS011;8469;60.136;15.180;2023-04-01T15:46:29;0.70;;;0.40;;
16705;SDS011;8469;60.136;15.180;2023-04-01T15:54:32;1.95;;;0.60;;
16705;SDS011;8469;60.136;15.180;2023-04-01T16:07:43;1.20;;;0.50;;
16705;SDS011;8469;60.136;15.180;2023-04-01T16:20:51;1.27;;;0.55;;
16705;SDS011;8469;60.136;15.180;2023-04-01T16:23:39;4.27;;;0.80;;
16705;SDS011;8469;60.136;15.180;2023-04-01T16:26:19;2.10;;;0.75;;
16705;SDS011;8469;60.136;15.180;2023-04-01T16:31:13;1.10;;;0.70;;
16705;SDS011;8469;60.136;15.180;2023-04-01T16:33:55;2.12;;;0.60;;
16705;SDS011;8469;60.136;15.180;2023-04-01T16:36:21;0.60;;;0.45;;
16705;SDS011;8469;60.136;15.180;2023-04-01T16:38:50;2.42;;;0.50;;
16705;SDS011;8469;60.136;15.180;2023-04-01T16:41:34;2.23;;;0.50;;
16705;SDS011;8469;60.136;15.180;2023-04-01T16:44:44;1.43;;;0.70;;
16705;SDS011;8469;60.136;15.180;2023-04-01T16:51:48;1.80;;;0.47;;
16705;SDS011;8469;60.136;15.180;2023-04-01T16:57:03;3.90;;;1.00;;
16705;SDS011;8469;60.136;15.180;2023-04-01T16:59:37;8.40;;;4.03;;
16705;SDS011;8469;60.136;15.180;2023-04-01T17:07:16;7.35;;;0.85;;
16705;SDS011;8469;60.136;15.180;2023-04-01T17:10:02;2.27;;;0.90;;
16705;SDS011;8469;60.136;15.180;2023-04-01T17:12:37;5.80;;;1.47;;
16705;SDS011;8469;60.136;15.180;2023-04-01T17:27:58;6.03;;;1.00;;
16705;SDS011;8469;60.136;15.180;2023-04-01T17:33:11;4.35;;;1.25;;
16705;SDS011;8469;60.136;15.180;2023-04-01T17:36:26;17.48;;;1.82;;
16705;SDS011;8469;60.136;15.180;2023-04-01T17:38:13;22.07;;;1.57;;
16705;SDS011;8469;60.136;15.180;2023-04-01T17:40:50;6.58;;;1.50;;
16705;SDS011;8469;60.136;15.180;2023-04-01T17:45:54;20.43;;;1.40;;
16705;SDS011;8469;60.136;15.180;2023-04-01T17:48:22;2.50;;;0.60;;
16705;SDS011;8469;60.136;15.180;2023-04-01T17:50:58;0.70;;;0.70;;
16705;SDS011;8469;60.136;15.180;2023-04-01T17:53:39;9.35;;;1.20;;
16705;SDS011;8469;60.136;15.180;2023-04-01T17:58:59;2.62;;;0.90;;
16705;SDS011;8469;60.136;15.180;2023-04-01T18:04:05;2.17;;;0.85;;
16705;SDS011;8469;60.136;15.180;2023-04-01T18:11:48;4.28;;;1.60;;
16705;SDS011;8469;60.136;15.180;2023-04-01T18:14:18;6.80;;;1.20;;
16705;SDS011;8469;60.136;15.180;2023-04-01T18:22:09;10.13;;;1.40;;
16705;SDS011;8469;60.136;15.180;2023-04-01T18:24:42;10.95;;;1.95;;
16705;SDS011;8469;60.136;15.180;2023-04-01T18:27:28;17.02;;;1.90;;
16705;SDS011;8469;60.136;15.180;2023-04-01T18:29:52;11.45;;;1.90;;
16705;SDS011;8469;60.136;15.180;2023-04-01T18:34:57;13.38;;;1.60;;
16705;SDS011;8469;60.136;15.180;2023-04-01T18:37:25;18.77;;;2.17;;
16705;SDS011;8469;60.136;15.180;2023-04-01T18:39:54;12.13;;;1.98;;
16705;SDS011;8469;60.136;15.180;2023-04-01T18:44:56;36.05;;;3.42;;
16705;SDS011;8469;60.136;15.180;2023-04-01T18:49:55;12.35;;;1.85;;
16705;SDS011;8469;60.136;15.180;2023-04-01T18:52:24;8.50;;;2.10;;
16705;SDS011;8469;60.136;15.180;2023-04-01T18:55:18;5.37;;;1.40;;
16705;SDS011;8469;60.136;15.180;2023-04-01T18:57:20;4.30;;;1.50;;
16705;SDS011;8469;60.136;15.180;2023-04-01T19:00:03;8.63;;;1.70;;
16705;SDS011;8469;60.136;15.180;2023-04-01T19:05:05;2.63;;;1.20;;
16705;SDS011;8469;60.136;15.180;2023-04-01T19:15:29;6.30;;;1.10;;
16705;SDS011;8469;60.136;15.180;2023-04-01T19:18:02;10.85;;;1.70;;
16705;SDS011;8469;60.136;15.180;2023-04-01T19:23:08;2.60;;;1.32;;
16705;SDS011;8469;60.136;15.180;2023-04-01T19:30:48;8.28;;;0.80;;
16705;SDS011;8469;60.136;15.180;2023-04-01T19:33:17;5.12;;;1.42;;
16705;SDS011;8469;60.136;15.180;2023-04-01T19:35:42;1.95;;;0.80;;
16705;SDS011;8469;60.136;15.180;2023-04-01T19:40:58;4.25;;;1.35;;
16705;SDS011;8469;60.136;15.180;2023-04-01T19:43:30;7.50;;;1.35;;
16705;SDS011;8469;60.136;15.180;2023-04-01T19:46:00;5.28;;;1.20;;
16705;SDS011;8469;60.136;15.180;2023-04-01T19:54:04;9.43;;;1.20;;
16705;SDS011;8469;60.136;15.180;2023-04-01T19:56:35;8.48;;;1.20;;
16705;SDS011;8469;60.136;15.180;2023-04-01T19:59:03;24.67;;;1.98;;
16705;SDS011;8469;60.136;15.180;2023-04-01T20:01:41;21.95;;;1.50;;
16705;SDS011;8469;60.136;15.180;2023-04-01T20:04:17;22.60;;;1.85;;
16705;SDS011;8469;60.136;15.180;2023-04-01T20:09:23;18.67;;;2.33;;
16705;SDS011;8469;60.136;15.180;2023-04-01T20:14:21;34.88;;;3.52;;
16705;SDS011;8469;60.136;15.180;2023-04-01T20:16:53;28.62;;;3.37;;
16705;SDS011;8469;60.136;15.180;2023-04-01T20:19:25;19.80;;;2.22;;
16705;SDS011;8469;60.136;15.180;2023-04-01T20:21:50;16.00;;;2.67;;
16705;SDS011;8469;60.136;15.180;2023-04-01T20:24:20;13.25;;;2.05;;
16705;SDS011;8469;60.136;15.180;2023-04-01T20:26:53;20.35;;;2.20;;
16705;SDS011;8469;60.136;15.180;2023-04-01T20:32:05;19.40;;;2.33;;
16705;SDS011;8469;60.136;15.180;2023-04-01T20:34:33;10.60;;;2.37;;
16705;SDS011;8469;60.136;15.180;2023-04-01T20:37:02;10.25;;;2.00;;
16705;SDS011;8469;60.136;15.180;2023-04-01T20:42:12;12.03;;;1.72;;
16705;SDS011;8469;60.136;15.180;2023-04-01T20:50:00;22.75;;;2.40;;
16705;SDS011;8469;60.136;15.180;2023-04-01T20:58:00;24.07;;;2.90;;
16705;SDS011;8469;60.136;15.180;2023-04-01T21:00:34;25.30;;;2.52;;
16705;SDS011;8469;60.136;15.180;2023-04-01T21:08:35;18.87;;;2.67;;
16705;SDS011;8469;60.136;15.180;2023-04-01T21:10:43;13.17;;;2.60;;
16705;SDS011;8469;60.136;15.180;2023-04-01T21:29:38;11.38;;;2.58;;
16705;SDS011;8469;60.136;15.180;2023-04-01T21:34:36;17.67;;;2.60;;
16705;SDS011;8469;60.136;15.180;2023-04-01T21:45:35;22.30;;;2.80;;
16705;SDS011;8469;60.136;15.180;2023-04-01T21:58:32;4.42;;;1.60;;
16705;SDS011;8469;60.136;15.180;2023-04-01T22:06:24;2.22;;;1.52;;
16705;SDS011;8469;60.136;15.180;2023-04-01T22:11:38;4.75;;;1.37;;
16705;SDS011;8469;60.136;15.180;2023-04-01T22:16:51;7.53;;;1.60;;
16705;SDS011;8469;60.136;15.180;2023-04-01T22:21:59;5.83;;;1.60;;
16705;SDS011;8469;60.136;15.180;2023-04-01T22:27:26;2.92;;;1.47;;
16705;SDS011;8469;60.136;15.180;2023-04-01T22:35:16;5.78;;;1.35;;
16705;SDS011;8469;60.136;15.180;2023-04-01T22:37:58;3.77;;;1.20;;
16705;SDS011;8469;60.136;15.180;2023-04-01T22:40:28;2.85;;;1.37;;
16705;SDS011;8469;60.136;15.180;2023-04-01T22:43:01;6.58;;;1.30;;
16705;SDS011;8469;60.136;15.180;2023-04-01T22:51:09;3.15;;;1.25;;
16705;SDS011;8469;60.136;15.180;2023-04-01T22:53:39;5.87;;;1.25;;
16705;SDS011;8469;60.136;15.180;2023-04-01T22:56:05;1.45;;;1.35;;
16705;SDS011;8469;60.136;15.180;2023-04-01T22:58:34;3.85;;;1.42;;
16705;SDS011;8469;60.136;15.180;2023-04-01T23:01:05;1.80;;;1.05;;
16705;SDS011;8469;60.136;15.180;2023-04-01T23:03:39;4.47;;;1.32;;
16705;SDS011;8469;60.136;15.180;2023-04-01T23:06:06;3.30;;;1.60;;
16705;SDS011;8469;60.136;15.180;2023-04-01T23:11:05;3.33;;;1.25;;
16705;SDS011;8469;60.136;15.180;2023-04-01T23:13:47;3.45;;;1.20;;
16705;SDS011;8469;60.136;15.180;2023-04-01T23:16:11;2.42;;;1.30;;
16705;SDS011;8469;60.136;15.180;2023-04-01T23:18:50;5.40;;;1.70;;
16705;SDS011;8469;60.136;15.180;2023-04-01T23:21:15;6.62;;;1.57;;
16705;SDS011;8469;60.136;15.180;2023-04-01T23:23:50;4.85;;;1.47;;
16705;SDS011;8469;60.136;15.180;2023-04-01T23:26:21;5.25;;;1.62;;
16705;SDS011;8469;60.136;15.180;2023-04-01T23:28:56;7.20;;;1.43;;
16705;SDS011;8469;60.136;15.180;2023-04-01T23:33:59;4.53;;;1.22;;
16705;SDS011;8469;60.136;15.180;2023-04-01T23:36:23;3.57;;;1.20;;
16705;SDS011;8469;60.136;15.180;2023-04-01T23:38:51;2.75;;;1.20;;
16705;SDS011;8469;60.136;15.180;2023-04-01T23:41:23;3.05;;;1.52;;
16705;SDS011;8469;60.136;15.180;2023-04-01T23:43:53;3.20;;;1.35;;
16705;SDS011;8469;60.136;15.180;2023-04-01T23:46:16;5.53;;;1.57;;
16705;SDS011;8469;60.136;15.180;2023-04-01T23:48:44;4.58;;;1.50;;